sensor_id;sensor_type;location;lat;lon;timestamp;pressure;altitude;pressure_sealevel;temperature;humidity
13593;BME280;6867;50.998;4.250;2024-01-30T00:01:23;102259.66;;;14.35;67.16
13593;BME280;6867;50.998;4.250;2024-01-30T00:03:53;102252.00;;;14.38;66.57
13593;BME280;6867;50.998;4.250;2024-01-30T00:06:20;102253.69;;;14.46;66.70
13593;BME280;6867;50.998;4.250;2024-01-30T00:08:47;102249.56;;;14.22;67.15
13593;BME280;6867;50.998;4.250;2024-01-30T00:11:15;102254.09;;;14.43;66.69
13593;BME280;6867;50.998;4.250;2024-01-30T00:13:42;102244.25;;;14.35;66.22
13593;BME280;6867;50.998;4.250;2024-01-30T00:16:20;102245.72;;;14.38;66.82
13593;BME280;6867;50.998;4.250;2024-01-30T00:18:47;102245.94;;;14.36;66.46
13593;BME280;6867;50.998;4.250;2024-01-30T00:21:15;102225.97;;;14.37;66.57
13593;BME280;6867;50.998;4.250;2024-01-30T00:23:42;102228.44;;;14.32;66.37
13593;BME280;6867;50.998;4.250;2024-01-30T00:26:08;102241.25;;;14.24;67.25
13593;BME280;6867;50.998;4.250;2024-01-30T00:28:37;102232.66;;;14.41;66.43
13593;BME280;6867;50.998;4.250;2024-01-30T00:31:04;102238.88;;;14.42;66.91
13593;BME280;6867;50.998;4.250;2024-01-30T00:33:30;102241.69;;;14.27;66.58
13593;BME280;6867;50.998;4.250;2024-01-30T00:35:57;102241.84;;;14.19;66.68
13593;BME280;6867;50.998;4.250;2024-01-30T00:38:25;102250.09;;;14.11;67.07
13593;BME280;6867;50.998;4.250;2024-01-30T00:40:52;102243.19;;;14.08;67.45
13593;BME280;6867;50.998;4.250;2024-01-30T00:43:19;102230.66;;;14.22;67.05
13593;BME280;6867;50.998;4.250;2024-01-30T00:45:46;102220.75;;;14.36;66.66
13593;BME280;6867;50.998;4.250;2024-01-30T00:48:13;102225.97;;;14.37;66.80
13593;BME280;6867;50.998;4.250;2024-01-30T00:50:40;102216.88;;;14.17;66.55
13593;BME280;6867;50.998;4.250;2024-01-30T00:53:06;102223.81;;;13.98;67.14
13593;BME280;6867;50.998;4.250;2024-01-30T00:55:35;102235.63;;;14.18;67.05
13593;BME280;6867;50.998;4.250;2024-01-30T00:58:02;102223.13;;;14.17;67.01
13593;BME280;6867;50.998;4.250;2024-01-30T01:00:28;102230.22;;;14.18;67.01
13593;BME280;6867;50.998;4.250;2024-01-30T01:02:58;102213.09;;;14.11;67.09
13593;BME280;6867;50.998;4.250;2024-01-30T01:05:28;102224.50;;;14.07;67.42
13593;BME280;6867;50.998;4.250;2024-01-30T01:07:57;102221.28;;;14.18;66.80
13593;BME280;6867;50.998;4.250;2024-01-30T01:10:25;102212.47;;;14.09;67.41
13593;BME280;6867;50.998;4.250;2024-01-30T01:12:54;102227.50;;;14.18;67.18
13593;BME280;6867;50.998;4.250;2024-01-30T01:15:21;102217.22;;;14.35;67.23
13593;BME280;6867;50.998;4.250;2024-01-30T01:17:47;102214.81;;;14.19;66.84
13593;BME280;6867;50.998;4.250;2024-01-30T01:20:14;102217.84;;;14.37;66.97
13593;BME280;6867;50.998;4.250;2024-01-30T01:22:41;102217.72;;;14.17;67.47
13593;BME280;6867;50.998;4.250;2024-01-30T01:25:08;102218.31;;;14.13;67.28
13593;BME280;6867;50.998;4.250;2024-01-30T01:27:37;102236.38;;;14.12;67.74
13593;BME280;6867;50.998;4.250;2024-01-30T01:30:11;102229.00;;;14.00;67.83
13593;BME280;6867;50.998;4.250;2024-01-30T01:32:43;102234.53;;;14.13;67.65
13593;BME280;6867;50.998;4.250;2024-01-30T01:35:16;102225.63;;;14.19;67.65
13593;BME280;6867;50.998;4.250;2024-01-30T01:37:43;102220.28;;;14.26;66.93
13593;BME280;6867;50.998;4.250;2024-01-30T01:40:10;102218.59;;;14.25;67.54
13593;BME280;6867;50.998;4.250;2024-01-30T01:42:36;102210.31;;;14.26;67.40
13593;BME280;6867;50.998;4.250;2024-01-30T01:45:04;102189.13;;;14.30;67.08
13593;BME280;6867;50.998;4.250;2024-01-30T01:47:32;102206.75;;;14.54;66.92
13593;BME280;6867;50.998;4.250;2024-01-30T01:49:59;102186.25;;;14.38;66.81
13593;BME280;6867;50.998;4.250;2024-01-30T01:52:26;102197.91;;;14.38;66.90
13593;BME280;6867;50.998;4.250;2024-01-30T01:54:53;102193.34;;;14.39;66.95
13593;BME280;6867;50.998;4.250;2024-01-30T01:57:21;102195.53;;;14.29;66.90
13593;BME280;6867;50.998;4.250;2024-01-30T01:59:47;102193.66;;;14.23;66.90
13593;BME280;6867;50.998;4.250;2024-01-30T02:02:16;102187.00;;;13.97;67.10
13593;BME280;6867;50.998;4.250;2024-01-30T02:04:45;102193.25;;;14.26;66.93
13593;BME280;6867;50.998;4.250;2024-01-30T02:07:13;102194.41;;;14.16;67.28
13593;BME280;6867;50.998;4.250;2024-01-30T02:09:39;102205.28;;;14.23;67.38
13593;BME280;6867;50.998;4.250;2024-01-30T02:12:06;102209.13;;;14.07;68.21
13593;BME280;6867;50.998;4.250;2024-01-30T02:14:33;102201.69;;;14.16;67.85
13593;BME280;6867;50.998;4.250;2024-01-30T02:17:15;102197.88;;;14.32;67.30
13593;BME280;6867;50.998;4.250;2024-01-30T02:19:42;102187.84;;;14.26;67.36
13593;BME280;6867;50.998;4.250;2024-01-30T02:22:10;102180.38;;;14.28;67.03
13593;BME280;6867;50.998;4.250;2024-01-30T02:24:37;102207.94;;;14.16;67.96
13593;BME280;6867;50.998;4.250;2024-01-30T02:27:04;102193.38;;;14.45;67.12
13593;BME280;6867;50.998;4.250;2024-01-30T02:29:31;102208.38;;;14.20;67.82
13593;BME280;6867;50.998;4.250;2024-01-30T02:31:57;102200.19;;;14.35;67.73
13593;BME280;6867;50.998;4.250;2024-01-30T02:34:24;102197.06;;;14.38;67.52
13593;BME280;6867;50.998;4.250;2024-01-30T02:36:51;102202.69;;;14.36;67.30
13593;BME280;6867;50.998;4.250;2024-01-30T02:39:22;102201.63;;;14.37;67.66
13593;BME280;6867;50.998;4.250;2024-01-30T02:41:49;102198.91;;;14.31;67.76
13593;BME280;6867;50.998;4.250;2024-01-30T02:44:16;102196.06;;;14.45;67.77
13593;BME280;6867;50.998;4.250;2024-01-30T02:46:43;102196.00;;;14.67;67.27
13593;BME280;6867;50.998;4.250;2024-01-30T02:49:09;102197.28;;;14.71;66.62
13593;BME280;6867;50.998;4.250;2024-01-30T02:51:38;102205.00;;;14.67;66.90
13593;BME280;6867;50.998;4.250;2024-01-30T02:54:08;102207.63;;;14.33;67.72
13593;BME280;6867;50.998;4.250;2024-01-30T02:56:36;102214.22;;;14.24;68.20
13593;BME280;6867;50.998;4.250;2024-01-30T02:59:03;102223.13;;;14.17;68.30
13593;BME280;6867;50.998;4.250;2024-01-30T03:01:31;102239.00;;;14.27;68.21
13593;BME280;6867;50.998;4.250;2024-01-30T03:03:58;102228.06;;;14.42;67.98
13593;BME280;6867;50.998;4.250;2024-01-30T03:06:24;102229.66;;;14.51;68.18
13593;BME280;6867;50.998;4.250;2024-01-30T03:08:53;102221.25;;;14.46;67.60
13593;BME280;6867;50.998;4.250;2024-01-30T03:11:19;102229.50;;;14.38;68.36
13593;BME280;6867;50.998;4.250;2024-01-30T03:13:48;102225.50;;;14.27;68.60
13593;BME280;6867;50.998;4.250;2024-01-30T03:16:14;102218.28;;;14.34;68.24
13593;BME280;6867;50.998;4.250;2024-01-30T03:18:41;102221.41;;;14.10;68.70
13593;BME280;6867;50.998;4.250;2024-01-30T03:21:08;102219.13;;;14.41;68.55
13593;BME280;6867;50.998;4.250;2024-01-30T03:23:34;102217.59;;;14.26;68.30
13593;BME280;6867;50.998;4.250;2024-01-30T03:26:01;102194.63;;;14.15;68.70
13593;BME280;6867;50.998;4.250;2024-01-30T03:28:29;102212.94;;;14.48;68.21
13593;BME280;6867;50.998;4.250;2024-01-30T03:30:57;102196.78;;;13.98;68.75
13593;BME280;6867;50.998;4.250;2024-01-30T03:33:24;102194.09;;;14.26;68.28
13593;BME280;6867;50.998;4.250;2024-01-30T03:35:51;102204.19;;;14.45;68.29
13593;BME280;6867;50.998;4.250;2024-01-30T03:38:17;102187.72;;;14.34;68.15
13593;BME280;6867;50.998;4.250;2024-01-30T03:40:45;102186.66;;;14.35;68.48
13593;BME280;6867;50.998;4.250;2024-01-30T03:43:12;102183.38;;;14.11;68.58
13593;BME280;6867;50.998;4.250;2024-01-30T03:45:39;102193.94;;;14.34;68.46
13593;BME280;6867;50.998;4.250;2024-01-30T03:48:09;102200.84;;;14.43;68.01
13593;BME280;6867;50.998;4.250;2024-01-30T03:50:38;102192.66;;;14.30;68.43
13593;BME280;6867;50.998;4.250;2024-01-30T03:53:10;102190.59;;;14.32;67.83
13593;BME280;6867;50.998;4.250;2024-01-30T03:55:40;102189.81;;;14.38;68.14
13593;BME280;6867;50.998;4.250;2024-01-30T03:58:06;102177.34;;;14.09;68.87
13593;BME280;6867;50.998;4.250;2024-01-30T04:00:33;102186.00;;;14.33;67.92
13593;BME280;6867;50.998;4.250;2024-01-30T04:03:00;102177.38;;;14.16;68.35
13593;BME280;6867;50.998;4.250;2024-01-30T04:05:28;102189.22;;;14.43;68.16
13593;BME280;6867;50.998;4.250;2024-01-30T04:07:55;102185.72;;;14.49;67.49
13593;BME280;6867;50.998;4.250;2024-01-30T04:10:23;102178.84;;;14.47;67.58
13593;BME280;6867;50.998;4.250;2024-01-30T04:12:50;102198.41;;;14.20;68.10
13593;BME280;6867;50.998;4.250;2024-01-30T04:15:16;102177.88;;;14.26;67.43
13593;BME280;6867;50.998;4.250;2024-01-30T04:17:43;102187.34;;;14.43;67.91
13593;BME280;6867;50.998;4.250;2024-01-30T04:20:13;102172.03;;;14.23;68.03
13593;BME280;6867;50.998;4.250;2024-01-30T04:22:42;102180.44;;;14.06;68.34
13593;BME280;6867;50.998;4.250;2024-01-30T04:25:09;102185.69;;;14.14;68.25
13593;BME280;6867;50.998;4.250;2024-01-30T04:27:36;102186.59;;;14.28;67.76
13593;BME280;6867;50.998;4.250;2024-01-30T04:30:03;102180.59;;;14.33;67.98
13593;BME280;6867;50.998;4.250;2024-01-30T04:32:32;102198.94;;;14.37;67.99
13593;BME280;6867;50.998;4.250;2024-01-30T04:34:59;102173.81;;;14.43;67.40
13593;BME280;6867;50.998;4.250;2024-01-30T04:37:26;102178.03;;;14.18;67.79
13593;BME280;6867;50.998;4.250;2024-01-30T04:39:54;102190.13;;;14.22;68.39
13593;BME280;6867;50.998;4.250;2024-01-30T04:42:21;102175.19;;;14.26;68.07
13593;BME280;6867;50.998;4.250;2024-01-30T04:44:47;102168.03;;;14.47;67.59
13593;BME280;6867;50.998;4.250;2024-01-30T04:47:14;102169.34;;;14.29;68.09
13593;BME280;6867;50.998;4.250;2024-01-30T04:49:43;102182.09;;;14.42;67.71
13593;BME280;6867;50.998;4.250;2024-01-30T04:52:12;102177.56;;;14.42;67.88
13593;BME280;6867;50.998;4.250;2024-01-30T04:54:42;102173.97;;;14.70;67.02
13593;BME280;6867;50.998;4.250;2024-01-30T04:57:10;102171.06;;;14.65;67.41
13593;BME280;6867;50.998;4.250;2024-01-30T04:59:37;102153.47;;;14.48;67.20
13593;BME280;6867;50.998;4.250;2024-01-30T05:02:04;102166.91;;;14.34;67.58
13593;BME280;6867;50.998;4.250;2024-01-30T05:04:31;102178.41;;;14.15;68.18
13593;BME280;6867;50.998;4.250;2024-01-30T05:06:58;102182.56;;;14.45;67.68
13593;BME280;6867;50.998;4.250;2024-01-30T05:09:24;102181.41;;;14.55;67.82
13593;BME280;6867;50.998;4.250;2024-01-30T05:11:53;102184.50;;;14.52;67.40
13593;BME280;6867;50.998;4.250;2024-01-30T05:14:21;102174.53;;;14.59;67.50
13593;BME280;6867;50.998;4.250;2024-01-30T05:16:48;102181.19;;;14.22;68.18
13593;BME280;6867;50.998;4.250;2024-01-30T05:19:14;102186.00;;;14.33;68.08
13593;BME280;6867;50.998;4.250;2024-01-30T05:21:42;102195.59;;;14.35;68.14
13593;BME280;6867;50.998;4.250;2024-01-30T05:24:12;102189.53;;;14.33;68.31
13593;BME280;6867;50.998;4.250;2024-01-30T05:26:38;102182.28;;;13.78;68.71
13593;BME280;6867;50.998;4.250;2024-01-30T05:29:06;102192.00;;;14.28;68.27
13593;BME280;6867;50.998;4.250;2024-01-30T05:31:34;102178.19;;;14.16;68.02
13593;BME280;6867;50.998;4.250;2024-01-30T05:34:01;102189.28;;;13.93;69.33
13593;BME280;6867;50.998;4.250;2024-01-30T05:36:28;102225.94;;;13.38;71.19
13593;BME280;6867;50.998;4.250;2024-01-30T05:38:56;102205.19;;;14.10;69.53
13593;BME280;6867;50.998;4.250;2024-01-30T05:41:22;102184.19;;;14.12;69.01
13593;BME280;6867;50.998;4.250;2024-01-30T05:43:49;102203.41;;;12.51;71.65
13593;BME280;6867;50.998;4.250;2024-01-30T05:46:20;102261.34;;;11.71;76.23
13593;BME280;6867;50.998;4.250;2024-01-30T05:48:48;102265.66;;;11.49;77.97
13593;BME280;6867;50.998;4.250;2024-01-30T05:51:14;102277.22;;;11.58;78.47
13593;BME280;6867;50.998;4.250;2024-01-30T05:53:41;102272.28;;;12.15;77.73
13593;BME280;6867;50.998;4.250;2024-01-30T05:56:08;102254.19;;;11.78;78.02
13593;BME280;6867;50.998;4.250;2024-01-30T05:58:34;102227.72;;;12.13;76.08
13593;BME280;6867;50.998;4.250;2024-01-30T06:01:02;102239.66;;;12.78;75.29
13593;BME280;6867;50.998;4.250;2024-01-30T06:03:29;102233.44;;;13.43;73.79
13593;BME280;6867;50.998;4.250;2024-01-30T06:06:03;102207.16;;;13.52;72.32
13593;BME280;6867;50.998;4.250;2024-01-30T06:08:30;102192.50;;;13.61;70.90
13593;BME280;6867;50.998;4.250;2024-01-30T06:10:56;102208.56;;;13.26;71.46
13593;BME280;6867;50.998;4.250;2024-01-30T06:13:23;102237.22;;;13.27;72.32
13593;BME280;6867;50.998;4.250;2024-01-30T06:15:50;102209.97;;;13.86;70.41
13593;BME280;6867;50.998;4.250;2024-01-30T06:18:16;102215.84;;;13.90;70.11
13593;BME280;6867;50.998;4.250;2024-01-30T06:20:43;102219.75;;;13.87;70.55
13593;BME280;6867;50.998;4.250;2024-01-30T06:23:11;102211.97;;;13.78;69.99
13593;BME280;6867;50.998;4.250;2024-01-30T06:25:40;102244.97;;;13.52;71.41
13593;BME280;6867;50.998;4.250;2024-01-30T06:28:07;102236.28;;;13.78;70.63
13593;BME280;6867;50.998;4.250;2024-01-30T06:30:34;102248.50;;;13.95;70.27
13593;BME280;6867;50.998;4.250;2024-01-30T06:33:02;102245.78;;;13.95;70.12
13593;BME280;6867;50.998;4.250;2024-01-30T06:35:29;102244.81;;;14.03;69.73
13593;BME280;6867;50.998;4.250;2024-01-30T06:37:55;102252.47;;;13.99;69.93
13593;BME280;6867;50.998;4.250;2024-01-30T06:40:23;102245.25;;;14.28;69.01
13593;BME280;6867;50.998;4.250;2024-01-30T06:42:50;102238.09;;;14.20;69.50
13593;BME280;6867;50.998;4.250;2024-01-30T06:45:17;102252.44;;;13.71;70.59
13593;BME280;6867;50.998;4.250;2024-01-30T06:47:43;102281.22;;;13.64;71.35
13593;BME280;6867;50.998;4.250;2024-01-30T06:50:13;102280.66;;;13.68;71.03
13593;BME280;6867;50.998;4.250;2024-01-30T06:52:40;102277.16;;;13.75;70.88
13593;BME280;6867;50.998;4.250;2024-01-30T06:55:07;102281.25;;;13.85;70.91
13593;BME280;6867;50.998;4.250;2024-01-30T06:57:35;102276.66;;;13.64;71.00
13593;BME280;6867;50.998;4.250;2024-01-30T07:00:02;102296.59;;;13.63;71.52
13593;BME280;6867;50.998;4.250;2024-01-30T07:02:29;102299.78;;;14.10;70.96
13593;BME280;6867;50.998;4.250;2024-01-30T07:04:56;102257.97;;;14.55;68.84
13593;BME280;6867;50.998;4.250;2024-01-30T07:07:22;102256.41;;;14.74;68.46
13593;BME280;6867;50.998;4.250;2024-01-30T07:09:49;102264.91;;;14.71;68.26
13593;BME280;6867;50.998;4.250;2024-01-30T07:12:21;102263.91;;;14.79;67.76
13593;BME280;6867;50.998;4.250;2024-01-30T07:14:49;102280.13;;;14.23;69.21
13593;BME280;6867;50.998;4.250;2024-01-30T07:17:15;102307.88;;;14.10;69.91
13593;BME280;6867;50.998;4.250;2024-01-30T07:19:42;102320.41;;;13.96;70.53
13593;BME280;6867;50.998;4.250;2024-01-30T07:22:09;102316.59;;;14.12;69.83
13593;BME280;6867;50.998;4.250;2024-01-30T07:24:36;102304.56;;;14.57;69.60
13593;BME280;6867;50.998;4.250;2024-01-30T07:27:03;102288.22;;;15.07;67.65
13593;BME280;6867;50.998;4.250;2024-01-30T07:29:30;102285.78;;;14.84;67.50
13593;BME280;6867;50.998;4.250;2024-01-30T07:31:58;102283.97;;;14.91;67.10
13593;BME280;6867;50.998;4.250;2024-01-30T07:34:24;102353.66;;;13.16;72.25
13593;BME280;6867;50.998;4.250;2024-01-30T07:36:52;102363.09;;;14.22;70.73
13593;BME280;6867;50.998;4.250;2024-01-30T07:39:22;102327.84;;;14.58;69.25
13593;BME280;6867;50.998;4.250;2024-01-30T07:41:48;102303.94;;;14.90;68.09
13593;BME280;6867;50.998;4.250;2024-01-30T07:44:15;102308.03;;;14.79;67.66
13593;BME280;6867;50.998;4.250;2024-01-30T07:46:42;102311.31;;;14.47;68.28
13593;BME280;6867;50.998;4.250;2024-01-30T07:49:10;102306.66;;;14.62;68.71
13593;BME280;6867;50.998;4.250;2024-01-30T07:51:37;102308.31;;;14.91;68.25
13593;BME280;6867;50.998;4.250;2024-01-30T07:54:03;102301.78;;;15.13;67.38
13593;BME280;6867;50.998;4.250;2024-01-30T07:56:37;102297.63;;;14.76;67.51
13593;BME280;6867;50.998;4.250;2024-01-30T07:59:04;102339.38;;;14.45;69.33
13593;BME280;6867;50.998;4.250;2024-01-30T08:01:31;102342.78;;;14.33;69.43
13593;BME280;6867;50.998;4.250;2024-01-30T08:03:57;102352.25;;;14.43;69.56
13593;BME280;6867;50.998;4.250;2024-01-30T08:06:25;102335.38;;;14.41;69.70
13593;BME280;6867;50.998;4.250;2024-01-30T08:08:52;102329.63;;;14.73;69.00
13593;BME280;6867;50.998;4.250;2024-01-30T08:11:19;102324.72;;;14.55;69.00
13593;BME280;6867;50.998;4.250;2024-01-30T08:13:50;102355.19;;;14.70;69.27
13593;BME280;6867;50.998;4.250;2024-01-30T08:16:17;102353.59;;;14.54;69.26
13593;BME280;6867;50.998;4.250;2024-01-30T08:18:44;102352.72;;;14.75;69.16
13593;BME280;6867;50.998;4.250;2024-01-30T08:21:11;102351.50;;;15.06;68.66
13593;BME280;6867;50.998;4.250;2024-01-30T08:23:39;102325.34;;;15.19;67.83
13593;BME280;6867;50.998;4.250;2024-01-30T08:26:06;102343.34;;;14.71;68.66
13593;BME280;6867;50.998;4.250;2024-01-30T08:28:33;102352.00;;;15.23;67.74
13593;BME280;6867;50.998;4.250;2024-01-30T08:31:00;102345.31;;;15.18;67.50
13593;BME280;6867;50.998;4.250;2024-01-30T08:33:27;102350.81;;;15.32;67.27
13593;BME280;6867;50.998;4.250;2024-01-30T08:35:54;102351.72;;;15.11;67.30
13593;BME280;6867;50.998;4.250;2024-01-30T08:38:20;102362.63;;;15.17;67.74
13593;BME280;6867;50.998;4.250;2024-01-30T08:40:49;102360.81;;;15.31;67.71
13593;BME280;6867;50.998;4.250;2024-01-30T08:43:15;102351.44;;;15.34;67.67
13593;BME280;6867;50.998;4.250;2024-01-30T08:45:42;102362.94;;;15.42;67.61
13593;BME280;6867;50.998;4.250;2024-01-30T08:48:09;102368.31;;;15.36;67.53
13593;BME280;6867;50.998;4.250;2024-01-30T08:50:35;102366.22;;;15.31;67.62
13593;BME280;6867;50.998;4.250;2024-01-30T08:53:02;102347.69;;;14.93;67.40
13593;BME280;6867;50.998;4.250;2024-01-30T08:55:29;102390.34;;;15.26;68.32
13593;BME280;6867;50.998;4.250;2024-01-30T08:58:00;102390.69;;;15.16;68.13
13593;BME280;6867;50.998;4.250;2024-01-30T09:00:29;102382.25;;;14.98;68.07
13593;BME280;6867;50.998;4.250;2024-01-30T09:02:55;102408.34;;;15.40;68.10
13593;BME280;6867;50.998;4.250;2024-01-30T09:05:22;102382.53;;;15.44;67.60
13593;BME280;6867;50.998;4.250;2024-01-30T09:07:49;102394.19;;;15.38;67.85
13593;BME280;6867;50.998;4.250;2024-01-30T09:10:15;102400.44;;;15.45;67.85
13593;BME280;6867;50.998;4.250;2024-01-30T09:12:42;102390.28;;;15.54;67.49
13593;BME280;6867;50.998;4.250;2024-01-30T09:15:11;102403.59;;;15.49;67.95
13593;BME280;6867;50.998;4.250;2024-01-30T09:17:37;102402.75;;;15.49;68.08
13593;BME280;6867;50.998;4.250;2024-01-30T09:20:05;102420.97;;;15.27;68.67
13593;BME280;6867;50.998;4.250;2024-01-30T09:22:32;102451.19;;;15.02;70.38
13593;BME280;6867;50.998;4.250;2024-01-30T09:24:59;102456.47;;;15.17;70.12
13593;BME280;6867;50.998;4.250;2024-01-30T09:27:25;102450.38;;;15.36;69.65
13593;BME280;6867;50.998;4.250;2024-01-30T09:29:52;102447.91;;;15.41;69.58
13593;BME280;6867;50.998;4.250;2024-01-30T09:32:20;102444.03;;;15.57;69.29
13593;BME280;6867;50.998;4.250;2024-01-30T09:34:47;102439.47;;;15.58;69.32
13593;BME280;6867;50.998;4.250;2024-01-30T09:37:13;102425.63;;;15.74;68.96
13593;BME280;6867;50.998;4.250;2024-01-30T09:39:43;102415.66;;;15.12;69.21
13593;BME280;6867;50.998;4.250;2024-01-30T09:42:14;102437.28;;;15.68;69.08
13593;BME280;6867;50.998;4.250;2024-01-30T09:44:46;102436.84;;;16.19;68.27
13593;BME280;6867;50.998;4.250;2024-01-30T09:47:15;102437.25;;;16.23;67.88
13593;BME280;6867;50.998;4.250;2024-01-30T09:49:44;102430.75;;;16.17;67.35
13593;BME280;6867;50.998;4.250;2024-01-30T09:52:12;102427.44;;;16.15;67.07
13593;BME280;6867;50.998;4.250;2024-01-30T09:54:40;102445.41;;;16.42;67.06
13593;BME280;6867;50.998;4.250;2024-01-30T09:57:08;102429.00;;;16.64;66.13
13593;BME280;6867;50.998;4.250;2024-01-30T09:59:34;102416.00;;;16.46;65.84
13593;BME280;6867;50.998;4.250;2024-01-30T10:02:01;102446.09;;;16.64;65.95
13593;BME280;6867;50.998;4.250;2024-01-30T10:04:29;102428.50;;;16.27;65.99
13593;BME280;6867;50.998;4.250;2024-01-30T10:06:57;102440.47;;;16.66;65.38
13593;BME280;6867;50.998;4.250;2024-01-30T10:09:26;102450.00;;;16.29;65.95
13593;BME280;6867;50.998;4.250;2024-01-30T10:11:53;102443.13;;;16.39;65.49
13593;BME280;6867;50.998;4.250;2024-01-30T10:14:20;102434.91;;;16.13;66.02
13593;BME280;6867;50.998;4.250;2024-01-30T10:16:47;102457.88;;;16.10;66.44
13593;BME280;6867;50.998;4.250;2024-01-30T10:19:13;102457.97;;;16.57;65.57
13593;BME280;6867;50.998;4.250;2024-01-30T10:21:40;102423.09;;;16.40;64.66
13593;BME280;6867;50.998;4.250;2024-01-30T10:24:09;102438.63;;;16.73;64.53
13593;BME280;6867;50.998;4.250;2024-01-30T10:26:38;102427.09;;;16.71;64.24
13593;BME280;6867;50.998;4.250;2024-01-30T10:29:05;102436.25;;;16.43;64.38
13593;BME280;6867;50.998;4.250;2024-01-30T10:31:31;102438.34;;;16.35;64.57
13593;BME280;6867;50.998;4.250;2024-01-30T10:33:58;102440.69;;;15.97;64.94
13593;BME280;6867;50.998;4.250;2024-01-30T10:36:28;102445.19;;;16.24;64.48
13593;BME280;6867;50.998;4.250;2024-01-30T10:38:59;102424.91;;;16.07;64.18
13593;BME280;6867;50.998;4.250;2024-01-30T10:41:27;102431.38;;;16.12;64.03
13593;BME280;6867;50.998;4.250;2024-01-30T10:44:02;102440.88;;;15.82;64.57
13593;BME280;6867;50.998;4.250;2024-01-30T10:46:32;102430.94;;;15.61;64.83
13593;BME280;6867;50.998;4.250;2024-01-30T10:48:59;102437.69;;;15.09;65.25
13593;BME280;6867;50.998;4.250;2024-01-30T10:51:27;102423.72;;;14.77;64.83
13593;BME280;6867;50.998;4.250;2024-01-30T10:53:55;102413.69;;;14.99;64.24
13593;BME280;6867;50.998;4.250;2024-01-30T10:56:23;102409.94;;;15.00;64.32
13593;BME280;6867;50.998;4.250;2024-01-30T10:58:52;102401.28;;;14.55;64.20
13593;BME280;6867;50.998;4.250;2024-01-30T11:01:19;102369.44;;;14.36;64.07
13593;BME280;6867;50.998;4.250;2024-01-30T11:03:48;102379.09;;;14.66;63.29
13593;BME280;6867;50.998;4.250;2024-01-30T11:06:15;102367.88;;;14.48;63.16
13593;BME280;6867;50.998;4.250;2024-01-30T11:08:45;102404.25;;;14.67;63.29
13593;BME280;6867;50.998;4.250;2024-01-30T11:11:12;102353.88;;;14.87;62.24
13593;BME280;6867;50.998;4.250;2024-01-30T11:13:39;102377.94;;;15.38;62.05
13593;BME280;6867;50.998;4.250;2024-01-30T11:16:11;102335.22;;;15.40;60.99
13593;BME280;6867;50.998;4.250;2024-01-30T11:18:39;102330.16;;;14.89;61.26
13593;BME280;6867;50.998;4.250;2024-01-30T11:21:06;102336.41;;;14.62;61.31
13593;BME280;6867;50.998;4.250;2024-01-30T11:23:33;102349.56;;;14.43;62.32
13593;BME280;6867;50.998;4.250;2024-01-30T11:26:00;102353.31;;;14.70;61.57
13593;BME280;6867;50.998;4.250;2024-01-30T11:28:32;102371.47;;;14.49;61.84
13593;BME280;6867;50.998;4.250;2024-01-30T11:31:03;102389.09;;;13.87;63.36
13593;BME280;6867;50.998;4.250;2024-01-30T11:33:31;102387.19;;;14.66;62.58
13593;BME280;6867;50.998;4.250;2024-01-30T11:35:59;102376.53;;;14.86;61.95
13593;BME280;6867;50.998;4.250;2024-01-30T11:38:26;102350.13;;;14.39;61.92
13593;BME280;6867;50.998;4.250;2024-01-30T11:40:55;102351.22;;;14.94;60.77
13593;BME280;6867;50.998;4.250;2024-01-30T11:43:22;102351.34;;;15.14;60.19
13593;BME280;6867;50.998;4.250;2024-01-30T11:45:49;102342.44;;;14.92;60.09
13593;BME280;6867;50.998;4.250;2024-01-30T11:48:16;102316.41;;;15.26;58.99
13593;BME280;6867;50.998;4.250;2024-01-30T11:50:44;102359.78;;;15.87;59.15
13593;BME280;6867;50.998;4.250;2024-01-30T11:53:11;102332.72;;;15.93;58.39
13593;BME280;6867;50.998;4.250;2024-01-30T11:55:38;102311.91;;;16.21;57.80
13593;BME280;6867;50.998;4.250;2024-01-30T11:58:05;102346.97;;;16.49;57.50
13593;BME280;6867;50.998;4.250;2024-01-30T12:00:31;102350.28;;;16.71;57.16
13593;BME280;6867;50.998;4.250;2024-01-30T12:02:59;102348.59;;;17.03;56.97
13593;BME280;6867;50.998;4.250;2024-01-30T12:05:26;102303.63;;;17.27;55.85
13593;BME280;6867;50.998;4.250;2024-01-30T12:07:56;102305.22;;;16.03;57.68
13593;BME280;6867;50.998;4.250;2024-01-30T12:10:24;102255.16;;;15.79;56.51
13593;BME280;6867;50.998;4.250;2024-01-30T12:12:51;102293.31;;;16.51;55.85
13593;BME280;6867;50.998;4.250;2024-01-30T12:15:21;102279.31;;;16.80;55.15
13593;BME280;6867;50.998;4.250;2024-01-30T12:17:48;102245.59;;;15.90;55.67
13593;BME280;6867;50.998;4.250;2024-01-30T12:20:17;102327.53;;;16.98;56.00
13593;BME280;6867;50.998;4.250;2024-01-30T12:22:45;102309.91;;;17.21;55.06
13593;BME280;6867;50.998;4.250;2024-01-30T12:25:15;102337.13;;;16.08;57.11
13593;BME280;6867;50.998;4.250;2024-01-30T12:27:42;102305.81;;;15.85;56.93
13593;BME280;6867;50.998;4.250;2024-01-30T12:30:12;102281.44;;;16.85;54.55
13593;BME280;6867;50.998;4.250;2024-01-30T12:32:41;102306.69;;;16.85;54.88
13593;BME280;6867;50.998;4.250;2024-01-30T12:35:09;102248.25;;;15.70;55.22
13593;BME280;6867;50.998;4.250;2024-01-30T12:37:36;102273.19;;;15.59;56.43
13593;BME280;6867;50.998;4.250;2024-01-30T12:40:04;102284.66;;;15.54;56.21
13593;BME280;6867;50.998;4.250;2024-01-30T12:42:32;102283.25;;;15.10;57.21
13593;BME280;6867;50.998;4.250;2024-01-30T12:44:59;102298.25;;;14.78;57.98
13593;BME280;6867;50.998;4.250;2024-01-30T12:47:26;102303.56;;;14.93;57.29
13593;BME280;6867;50.998;4.250;2024-01-30T12:49:53;102324.38;;;14.64;58.59
13593;BME280;6867;50.998;4.250;2024-01-30T12:52:20;102335.72;;;14.81;58.43
13593;BME280;6867;50.998;4.250;2024-01-30T12:54:47;102368.28;;;14.94;58.97
13593;BME280;6867;50.998;4.250;2024-01-30T12:57:14;102332.13;;;15.09;57.85
13593;BME280;6867;50.998;4.250;2024-01-30T12:59:42;102284.47;;;15.56;55.81
13593;BME280;6867;50.998;4.250;2024-01-30T13:02:08;102325.13;;;15.21;57.14